Time;durP1;ratioP1;P1;durP2;ratioP2;P2;SDS_P1;SDS_P2;PMS_P1;PMS_P2;Temp;Humidity;BMP_temperature;BMP_pressure;BME280_temperature;BME280_humidity;BME280_pressure;Samples;Min_cycle;Max_cycle;Signal;HPM_P1;HPM_P2
2023/02/21 02:15:03;;;;;;;;;;;9.30;99.90;;;;;;5051000;28;19928;-69
2023/02/21 02:17:47;;;;;;;;;;;9.20;99.90;;;;;;5050716;28;20007;-68
2023/02/21 02:20:25;;;;;;;;;;;9.30;99.90;;;;;;5050921;28;19999;-70
2023/02/21 02:23:03;;;;;;;;;;;9.20;99.90;;;;;;5052220;28;20378;-66
2023/02/21 02:25:48;;;;;;;;;;;9.30;99.90;;;;;;5052171;28;19973;-68
2023/02/21 02:28:19;;;;;;;;;;;9.40;99.90;;;;;;5049903;28;20245;-69
2023/02/21 02:30:45;;;;;;;;;;;9.40;99.90;;;;;;5049655;28;19916;-69
2023/02/21 02:33:10;;;;;;;;;;;9.50;99.90;;;;;;5053025;28;19927;-69
2023/02/21 02:35:40;;;;;;;;;;;9.50;99.90;;;;;;5051223;28;19939;-69
2023/02/21 02:38:16;;;;;;;;;;;9.50;99.90;;;;;;5053363;28;19935;-72
2023/02/21 02:41:01;;;;;;;;;;;9.40;99.90;;;;;;5051089;28;20015;-66
2023/02/21 02:43:35;;;;;;;;;;;9.50;99.90;;;;;;5055486;28;19920;-68
2023/02/21 02:46:08;;;;;;;;;;;9.50;99.90;;;;;;5062647;28;20065;-72
2023/02/21 02:48:44;;;;;;;;;;;9.60;99.90;;;;;;5053671;28;19917;-67
2023/02/21 02:51:12;;;;;;;;;;;9.50;99.90;;;;;;5054173;28;20475;-66
2023/02/21 02:53:38;;;;;;;;;;;9.50;99.90;;;;;;5050663;28;19921;-66
2023/02/21 02:56:10;;;;;;;;;;;9.40;99.90;;;;;;5053492;28;19913;-67
2023/02/21 02:58:41;;;;;;;;;;;9.40;99.90;;;;;;5052119;28;20329;-68
2023/02/21 03:01:14;;;;;;;;;;;9.50;99.90;;;;;;5051336;28;19923;-66
2023/02/21 03:03:49;;;;;;;;;;;9.70;99.90;;;;;;5059361;28;19927;-68
2023/02/21 03:06:33;;;;;;;;;;;9.80;99.90;;;;;;5050365;28;19921;-67
2023/02/21 03:09:07;;;;;;;;;;;9.80;99.90;;;;;;5050054;28;20371;-68
2023/02/21 03:11:35;;;;;;;;;;;9.80;99.90;;;;;;5065266;28;19919;-66
2023/02/21 03:14:12;;;;;;;;;;;9.90;99.90;;;;;;5053904;28;20418;-70
2023/02/21 03:16:38;;;;;;;;;;;9.80;99.90;;;;;;5054732;28;20366;-69
2023/02/21 03:19:06;;;;;;;;;;;9.70;99.90;;;;;;5055012;28;19927;-69
2023/02/21 03:21:43;;;;;;;;;;;9.70;99.90;;;;;;5044224;28;20023;-69
2023/02/21 03:24:10;;;;;;;;;;;9.60;99.90;;;;;;5057011;28;19917;-68
2023/02/21 03:26:37;;;;;;;;;;;9.50;99.90;;;;;;5059020;28;19921;-68
2023/02/21 03:29:03;;;;;;;;;;;9.50;99.90;;;;;;5057253;28;19913;-67
2023/02/21 03:31:32;;;;;;;;;;;9.60;99.90;;;;;;5055355;28;19999;-67
2023/02/21 03:33:58;;;;;;;;;;;9.60;99.90;;;;;;5055624;28;19920;-71
2023/02/21 03:36:24;;;;;;;;;;;9.70;99.90;;;;;;5054997;28;19921;-65
2023/02/21 03:38:50;;;;;;;;;;;9.70;99.90;;;;;;5066080;28;19913;-68
2023/02/21 03:41:16;;;;;;;;;;;9.70;99.90;;;;;;5074370;28;19909;-67
2023/02/21 03:43:41;;;;;;;;;;;9.60;99.90;;;;;;5074655;28;19991;-71
2023/02/21 03:46:07;;;;;;;;;;;9.60;99.90;;;;;;5076095;28;20484;-68
2023/02/21 03:48:33;;;;;;;;;;;9.70;99.90;;;;;;5067958;28;20043;-68
2023/02/21 03:50:59;;;;;;;;;;;9.70;99.90;;;;;;5076021;28;20255;-68
2023/02/21 03:53:25;;;;;;;;;;;9.70;99.90;;;;;;5076734;28;19915;-69
2023/02/21 03:55:50;;;;;;;;;;;9.60;99.90;;;;;;5076260;28;19916;-68
2023/02/21 03:58:16;;;;;;;;;;;9.60;99.90;;;;;;5076773;28;20042;-68
2023/02/21 04:00:42;;;;;;;;;;;9.50;99.90;;;;;;5076490;28;19916;-67
2023/02/21 04:03:08;;;;;;;;;;;9.50;99.90;;;;;;5075398;28;20619;-68
2023/02/21 04:05:33;;;;;;;;;;;9.50;99.90;;;;;;5069909;28;19909;-68
2023/02/21 04:07:59;;;;;;;;;;;9.60;99.90;;;;;;5076017;28;20436;-68
2023/02/21 04:10:25;;;;;;;;;;;9.60;99.90;;;;;;5065020;28;19947;-68
2023/02/21 04:12:51;;;;;;;;;;;9.60;99.90;;;;;;5051995;28;19913;-68
2023/02/21 04:15:16;;;;;;;;;;;9.60;99.90;;;;;;5051688;28;19932;-66
2023/02/21 04:17:42;;;;;;;;;;;9.60;99.90;;;;;;5053953;28;20310;-68
2023/02/21 04:20:08;;;;;;;;;;;9.40;99.90;;;;;;5051383;28;20007;-67
2023/02/21 04:22:34;;;;;;;;;;;9.30;99.90;;;;;;5059230;28;19925;-67
2023/02/21 04:25:01;;;;;;;;;;;9.30;99.90;;;;;;5055874;28;20330;-68
2023/02/21 04:27:27;;;;;;;;;;;9.30;99.90;;;;;;5051132;28;19956;-67
2023/02/21 04:29:53;;;;;;;;;;;9.40;99.90;;;;;;5050817;28;19916;-70
2023/02/21 04:32:18;;;;;;;;;;;9.40;99.90;;;;;;5053249;28;19917;-66
2023/02/21 04:34:44;;;;;;;;;;;9.40;99.90;;;;;;5055087;28;19927;-70
2023/02/21 04:37:10;;;;;;;;;;;9.40;99.90;;;;;;5056714;28;20392;-67
2023/02/21 04:39:35;;;;;;;;;;;9.30;99.90;;;;;;5055682;28;19917;-71
2023/02/21 04:42:01;;;;;;;;;;;9.30;99.90;;;;;;5056054;28;19963;-67
2023/02/21 04:44:27;;;;;;;;;;;9.30;99.90;;;;;;5054699;28;19919;-69
2023/02/21 04:46:52;;;;;;;;;;;9.20;99.90;;;;;;5056593;28;19978;-69
2023/02/21 04:49:18;;;;;;;;;;;9.30;99.90;;;;;;5053307;28;19996;-69
2023/02/21 04:51:43;;;;;;;;;;;9.20;99.90;;;;;;5054710;28;19917;-68
2023/02/21 04:54:09;;;;;;;;;;;9.20;99.90;;;;;;5053224;28;19975;-69
2023/02/21 04:56:36;;;;;;;;;;;9.10;99.90;;;;;;5053326;28;19920;-66
2023/02/21 04:59:02;;;;;;;;;;;9.10;99.90;;;;;;5052263;28;20453;-68
2023/02/21 05:01:29;;;;;;;;;;;9.20;99.90;;;;;;5051920;28;19956;-67
2023/02/21 05:03:56;;;;;;;;;;;9.20;99.90;;;;;;5054732;28;19947;-68
2023/02/21 05:06:23;;;;;;;;;;;9.10;99.90;;;;;;5057723;28;19960;-69
2023/02/21 05:08:48;;;;;;;;;;;9.20;99.90;;;;;;5061165;28;20291;-68
2023/02/21 05:11:14;;;;;;;;;;;9.20;99.90;;;;;;5074172;28;19991;-68
2023/02/21 05:13:41;;;;;;;;;;;9.10;99.90;;;;;;5074269;28;20022;-67
2023/02/21 05:16:07;;;;;;;;;;;8.90;99.90;;;;;;5049777;28;19963;-68
2023/02/21 05:18:33;;;;;;;;;;;8.90;99.90;;;;;;5072163;28;20392;-66
2023/02/21 05:20:59;;;;;;;;;;;8.90;99.90;;;;;;5074039;28;20000;-68
2023/02/21 05:23:33;;;;;;;;;;;9.00;99.90;;;;;;5071675;28;19959;-68
2023/02/21 05:26:02;;;;;;;;;;;9.10;99.90;;;;;;5070450;28;20340;-68
2023/02/21 05:28:28;;;;;;;;;;;9.00;99.90;;;;;;5073243;28;20005;-68
2023/02/21 05:30:53;;;;;;;;;;;9.00;99.90;;;;;;5073468;28;19909;-69
2023/02/21 05:33:19;;;;;;;;;;;8.90;99.90;;;;;;5071969;28;19999;-66
2023/02/21 05:35:46;;;;;;;;;;;8.90;99.90;;;;;;5068960;28;20382;-69
2023/02/21 05:38:13;;;;;;;;;;;8.90;99.90;;;;;;5070510;28;20101;-68
2023/02/21 05:40:39;;;;;;;;;;;8.90;99.90;;;;;;5073001;28;20524;-66
2023/02/21 05:43:04;;;;;;;;;;;8.90;99.90;;;;;;5075588;28;19958;-67
2023/02/21 05:45:30;;;;;;;;;;;8.90;99.90;;;;;;5074403;28;19973;-67
2023/02/21 05:47:59;;;;;;;;;;;8.80;99.90;;;;;;5074209;28;19912;-69
2023/02/21 05:50:25;;;;;;;;;;;8.90;99.90;;;;;;5077274;28;20295;-67
2023/02/21 05:52:51;;;;;;;;;;;8.80;99.90;;;;;;5068029;28;20418;-67
2023/02/21 05:55:17;;;;;;;;;;;8.90;99.90;;;;;;5072350;28;20226;-69
2023/02/21 05:57:43;;;;;;;;;;;8.90;99.90;;;;;;5071338;28;20023;-69
2023/02/21 06:00:16;;;;;;;;;;;8.80;99.90;;;;;;5068053;28;20067;-67
2023/02/21 06:02:42;;;;;;;;;;;8.90;99.90;;;;;;5073309;28;19908;-74
2023/02/21 06:05:07;;;;;;;;;;;8.90;99.90;;;;;;5067654;28;19912;-67
2023/02/21 06:07:33;;;;;;;;;;;9.00;99.90;;;;;;5070979;28;19912;-68
2023/02/21 06:09:59;;;;;;;;;;;9.10;99.90;;;;;;5071043;28;20444;-69
2023/02/21 06:12:24;;;;;;;;;;;9.10;99.90;;;;;;5070568;28;19916;-69
2023/02/21 06:14:50;;;;;;;;;;;9.20;99.90;;;;;;5062989;28;20953;-67
2023/02/21 06:17:15;;;;;;;;;;;9.10;99.90;;;;;;5069595;28;19917;-68
2023/02/21 06:19:41;;;;;;;;;;;9.10;99.90;;;;;;5069269;28;19966;-69
2023/02/21 06:22:07;;;;;;;;;;;9.20;99.90;;;;;;5064844;28;20400;-68
2023/02/21 06:24:32;;;;;;;;;;;9.20;99.90;;;;;;5069831;28;20011;-67
2023/02/21 06:26:58;;;;;;;;;;;9.20;99.90;;;;;;5069864;28;20298;-67
2023/02/21 06:29:24;;;;;;;;;;;9.20;99.90;;;;;;5067535;28;20186;-67
2023/02/21 06:31:54;;;;;;;;;;;9.20;99.90;;;;;;5072153;28;19908;-67
2023/02/21 06:34:20;;;;;;;;;;;9.40;99.90;;;;;;5069254;28;20382;-67
2023/02/21 06:36:50;;;;;;;;;;;9.40;99.90;;;;;;5070643;28;19921;-68
2023/02/21 06:39:15;;;;;;;;;;;9.40;99.90;;;;;;5072787;28;20274;-68
2023/02/21 06:41:41;;;;;;;;;;;9.40;99.90;;;;;;5067816;28;19918;-68
2023/02/21 06:44:07;;;;;;;;;;;9.40;99.90;;;;;;5064864;28;20011;-68
2023/02/21 06:46:35;;;;;;;;;;;9.40;99.90;;;;;;5072943;28;20385;-68
2023/02/21 06:49:00;;;;;;;;;;;9.50;99.90;;;;;;5068556;28;19913;-69
2023/02/21 06:51:28;;;;;;;;;;;9.60;99.90;;;;;;5064766;28;19930;-67
2023/02/21 06:53:54;;;;;;;;;;;9.70;99.90;;;;;;5071596;28;19917;-67
2023/02/21 06:56:19;;;;;;;;;;;9.70;99.90;;;;;;5069518;28;20371;-67
2023/02/21 06:58:45;;;;;;;;;;;9.70;99.90;;;;;;5061096;28;19913;-67
2023/02/21 07:01:11;;;;;;;;;;;9.70;99.90;;;;;;5066162;28;19915;-69
2023/02/21 07:03:41;;;;;;;;;;;9.80;99.90;;;;;;5072192;28;19968;-73
2023/02/21 07:06:07;;;;;;;;;;;9.80;99.90;;;;;;5064690;28;19973;-70
2023/02/21 07:08:33;;;;;;;;;;;9.80;99.90;;;;;;5063401;28;20003;-66
2023/02/21 07:10:58;;;;;;;;;;;9.90;99.90;;;;;;5050739;28;19909;-67
2023/02/21 07:13:24;;;;;;;;;;;10.00;99.90;;;;;;5070395;28;19917;-67
2023/02/21 07:15:50;;;;;;;;;;;10.10;99.90;;;;;;5065046;28;19917;-67
2023/02/21 07:18:15;;;;;;;;;;;10.10;99.90;;;;;;5066869;28;19908;-68
2023/02/21 07:20:41;;;;;;;;;;;10.20;99.90;;;;;;5067337;28;19919;-67
2023/02/21 07:23:07;;;;;;;;;;;10.20;99.90;;;;;;5069980;28;19942;-65
2023/02/21 07:25:32;;;;;;;;;;;10.20;99.90;;;;;;5066411;28;19913;-65
2023/02/21 07:27:58;;;;;;;;;;;10.30;99.90;;;;;;5044814;28;19959;-65
2023/02/21 07:30:23;;;;;;;;;;;10.30;99.90;;;;;;5068036;28;20386;-65
2023/02/21 07:32:49;;;;;;;;;;;10.40;99.90;;;;;;5069388;28;19922;-67
2023/02/21 07:35:15;;;;;;;;;;;10.40;99.90;;;;;;5071052;28;20321;-66
2023/02/21 07:37:41;;;;;;;;;;;10.50;99.90;;;;;;5068438;28;20071;-67
2023/02/21 07:40:06;;;;;;;;;;;10.50;99.90;;;;;;5068080;28;19963;-67
2023/02/21 07:42:32;;;;;;;;;;;10.60;99.90;;;;;;5062531;28;19921;-66
2023/02/21 07:44:58;;;;;;;;;;;10.50;99.90;;;;;;5065122;28;19917;-66
2023/02/21 07:47:24;;;;;;;;;;;10.60;99.90;;;;;;5065429;28;19927;-67
2023/02/21 07:49:50;;;;;;;;;;;10.60;99.90;;;;;;5068429;28;19917;-67
2023/02/21 07:52:16;;;;;;;;;;;10.70;99.90;;;;;;5068645;28;19924;-65
2023/02/21 07:54:42;;;;;;;;;;;10.80;99.90;;;;;;5071024;28;19927;-68
2023/02/21 07:57:07;;;;;;;;;;;10.90;99.90;;;;;;5080169;28;19973;-65
2023/02/21 07:59:33;;;;;;;;;;;10.80;99.90;;;;;;5076642;28;19912;-65
2023/02/21 08:01:59;;;;;;;;;;;10.80;99.90;;;;;;5086174;28;19915;-66
2023/02/21 08:04:25;;;;;;;;;;;10.90;99.90;;;;;;5088460;28;20017;-66
2023/02/21 08:06:51;;;;;;;;;;;11.00;99.90;;;;;;5089856;28;19915;-66
2023/02/21 08:09:16;;;;;;;;;;;11.20;99.90;;;;;;5069040;28;20053;-66
2023/02/21 08:11:42;;;;;;;;;;;11.20;99.90;;;;;;5068267;28;19920;-65
2023/02/21 08:14:07;;;;;;;;;;;11.10;99.90;;;;;;5075943;28;19923;-66
2023/02/21 08:16:33;;;;;;;;;;;11.20;99.90;;;;;;5066491;28;19912;-66
2023/02/21 08:18:59;;;;;;;;;;;11.20;99.90;;;;;;5064297;28;19913;-67
2023/02/21 08:21:24;;;;;;;;;;;11.30;99.90;;;;;;5064471;28;20386;-66
2023/02/21 08:23:54;;;;;;;;;;;11.30;99.90;;;;;;5072396;28;19913;-65
2023/02/21 08:26:19;;;;;;;;;;;11.30;99.90;;;;;;5069101;28;20059;-66
2023/02/21 08:28:45;;;;;;;;;;;11.40;99.90;;;;;;5067717;28;19969;-66
2023/02/21 08:31:11;;;;;;;;;;;11.50;99.90;;;;;;5063460;28;20008;-65
2023/02/21 08:33:36;;;;;;;;;;;11.60;99.90;;;;;;5052457;28;19919;-66
2023/02/21 08:36:03;;;;;;;;;;;11.60;99.90;;;;;;5054083;28;19912;-66
2023/02/21 08:38:28;;;;;;;;;;;11.60;99.90;;;;;;5054539;28;19909;-68
2023/02/21 08:40:54;;;;;;;;;;;11.50;99.90;;;;;;5060451;28;19969;-66
2023/02/21 08:43:19;;;;;;;;;;;11.60;99.90;;;;;;5067646;28;19912;-66
2023/02/21 08:45:45;;;;;;;;;;;11.70;99.90;;;;;;5069487;28;20027;-64
2023/02/21 08:48:11;;;;;;;;;;;11.70;99.90;;;;;;5068233;28;19913;-66
2023/02/21 08:50:36;;;;;;;;;;;11.80;99.90;;;;;;5066167;28;19913;-66
2023/02/21 08:53:02;;;;;;;;;;;11.70;99.90;;;;;;5070955;28;19934;-66
2023/02/21 08:55:28;;;;;;;;;;;11.80;99.90;;;;;;5072522;28;19916;-66
2023/02/21 08:57:54;;;;;;;;;;;11.80;99.90;;;;;;5074445;28;19932;-66
2023/02/21 09:00:22;;;;;;;;;;;11.90;99.90;;;;;;5069683;28;19993;-67
2023/02/21 09:02:50;;;;;;;;;;;11.80;99.90;;;;;;5055019;28;19921;-66
2023/02/21 09:05:18;;;;;;;;;;;11.90;99.90;;;;;;5053943;28;19920;-68
2023/02/21 09:07:46;;;;;;;;;;;11.90;99.90;;;;;;5055490;28;20435;-66
2023/02/21 09:10:12;;;;;;;;;;;11.80;99.90;;;;;;5067649;28;19913;-66
2023/02/21 09:12:38;;;;;;;;;;;11.80;99.90;;;;;;5070883;28;20270;-68
2023/02/21 09:15:04;;;;;;;;;;;11.80;99.90;;;;;;5073527;28;20011;-68
2023/02/21 09:17:33;;;;;;;;;;;11.80;99.90;;;;;;5068105;28;19948;-67
2023/02/21 09:19:59;;;;;;;;;;;11.90;99.90;;;;;;5070142;28;20366;-65
2023/02/21 09:22:25;;;;;;;;;;;12.10;99.90;;;;;;5065433;28;19916;-69
2023/02/21 09:24:51;;;;;;;;;;;12.00;99.90;;;;;;5064453;28;19920;-67
2023/02/21 09:27:16;;;;;;;;;;;11.80;99.90;;;;;;5066513;28;19948;-67
2023/02/21 09:29:43;;;;;;;;;;;11.80;99.90;;;;;;5077969;28;19919;-67
2023/02/21 09:32:09;;;;;;;;;;;11.80;99.90;;;;;;5084889;28;19908;-68
2023/02/21 09:34:34;;;;;;;;;;;11.70;99.90;;;;;;5071146;28;20247;-65
2023/02/21 09:37:03;;;;;;;;;;;11.70;99.90;;;;;;5073738;28;20267;-67
2023/02/21 09:39:29;;;;;;;;;;;11.70;99.90;;;;;;5070976;28;19983;-66
2023/02/21 09:41:56;;;;;;;;;;;11.70;99.90;;;;;;5072593;28;19981;-70
2023/02/21 09:44:26;;;;;;;;;;;11.60;99.90;;;;;;5066359;28;20374;-66
2023/02/21 09:46:55;;;;;;;;;;;11.70;99.90;;;;;;5072860;28;19923;-66
2023/02/21 09:49:20;;;;;;;;;;;11.80;99.90;;;;;;5070877;28;19919;-67
2023/02/21 09:51:47;;;;;;;;;;;11.70;99.90;;;;;;5069532;28;19999;-64
2023/02/21 09:54:33;;;;;;;;;;;11.70;99.90;;;;;;5069119;28;20357;-66
2023/02/21 09:57:03;;;;;;;;;;;11.70;99.90;;;;;;5067732;28;19916;-66
2023/02/21 09:59:29;;;;;;;;;;;11.60;99.90;;;;;;5072696;28;19912;-67
2023/02/21 10:02:06;;;;;;;;;;;11.50;99.90;;;;;;5070564;28;19913;-66
2023/02/21 10:04:32;;;;;;;;;;;11.50;99.90;;;;;;5071379;28;19913;-65
2023/02/21 10:07:01;;;;;;;;;;;11.40;99.90;;;;;;5071543;28;19921;-67
2023/02/21 10:09:36;;;;;;;;;;;11.30;99.90;;;;;;5068163;28;19920;-65
2023/02/21 10:12:09;;;;;;;;;;;11.30;99.90;;;;;;5050294;28;19943;-67
2023/02/21 10:14:40;;;;;;;;;;;11.40;99.90;;;;;;5070644;28;19924;-64
2023/02/21 10:17:24;;;;;;;;;;;11.60;99.90;;;;;;5069654;28;19919;-67
2023/02/21 10:19:54;;;;;;;;;;;11.80;99.90;;;;;;5070162;28;19920;-67
2023/02/21 10:22:22;;;;;;;;;;;12.00;99.90;;;;;;5064253;28;19916;-65
2023/02/21 10:24:48;;;;;;;;;;;12.00;99.90;;;;;;5055617;28;19912;-66
2023/02/21 10:27:18;;;;;;;;;;;12.00;99.90;;;;;;5071429;28;20378;-64
2023/02/21 10:29:48;;;;;;;;;;;12.00;99.90;;;;;;5085274;28;20285;-67
2023/02/21 10:32:13;;;;;;;;;;;12.20;99.90;;;;;;5081893;28;19912;-68
2023/02/21 10:34:42;;;;;;;;;;;12.20;99.90;;;;;;5073662;28;19917;-65
2023/02/21 10:37:11;;;;;;;;;;;12.30;99.90;;;;;;5066906;28;20014;-68
2023/02/21 10:39:40;;;;;;;;;;;12.40;99.90;;;;;;5080004;28;20286;-67
2023/02/21 10:42:11;;;;;;;;;;;12.40;99.90;;;;;;5083462;28;20231;-66
2023/02/21 10:44:36;;;;;;;;;;;12.40;99.90;;;;;;5081296;28;20359;-65
2023/02/21 10:47:02;;;;;;;;;;;12.50;99.90;;;;;;5077349;28;20118;-67
2023/02/21 10:49:32;;;;;;;;;;;12.50;99.90;;;;;;5068778;28;19947;-67
2023/02/21 10:52:05;;;;;;;;;;;12.50;99.90;;;;;;5060920;28;19913;-72
2023/02/21 10:54:31;;;;;;;;;;;12.50;99.90;;;;;;5081490;28;19916;-65
2023/02/21 10:56:58;;;;;;;;;;;12.50;99.90;;;;;;5085834;28;20278;-67
2023/02/21 10:59:26;;;;;;;;;;;12.50;99.90;;;;;;5074212;28;19912;-66
2023/02/21 11:01:52;;;;;;;;;;;12.50;99.90;;;;;;5061512;28;19912;-66
2023/02/21 11:04:21;;;;;;;;;;;12.40;99.90;;;;;;5077415;28;19912;-65
2023/02/21 11:06:48;;;;;;;;;;;12.40;99.90;;;;;;5068297;28;19913;-67
2023/02/21 11:09:26;;;;;;;;;;;12.20;99.90;;;;;;5071068;28;20662;-66
2023/02/21 11:12:10;;;;;;;;;;;12.20;99.90;;;;;;5053323;28;19909;-66
2023/02/21 11:14:36;;;;;;;;;;;12.10;99.90;;;;;;5051359;28;20366;-66
2023/02/21 11:17:05;;;;;;;;;;;12.20;99.90;;;;;;5065874;28;19944;-64
2023/02/21 11:19:41;;;;;;;;;;;12.30;99.90;;;;;;5072026;28;20330;-65
2023/02/21 11:22:08;;;;;;;;;;;12.20;99.90;;;;;;5067207;28;20374;-65
2023/02/21 11:24:43;;;;;;;;;;;12.30;99.90;;;;;;5070866;28;20426;-66
2023/02/21 11:27:08;;;;;;;;;;;12.30;99.90;;;;;;5068342;28;19913;-68
2023/02/21 11:29:35;;;;;;;;;;;12.30;99.90;;;;;;5072296;28;19920;-72
2023/02/21 11:32:09;;;;;;;;;;;12.40;99.90;;;;;;5069219;28;19995;-65
2023/02/21 11:34:34;;;;;;;;;;;12.50;99.90;;;;;;5068387;28;19924;-66
2023/02/21 11:37:02;;;;;;;;;;;12.40;99.90;;;;;;5064219;28;20061;-65
2023/02/21 11:39:31;;;;;;;;;;;12.30;99.90;;;;;;5067217;28;19923;-64
2023/02/21 11:41:59;;;;;;;;;;;12.30;99.90;;;;;;5068585;28;19912;-65
2023/02/21 11:44:26;;;;;;;;;;;12.40;99.90;;;;;;5073938;28;19912;-64
2023/02/21 11:47:07;;;;;;;;;;;12.50;99.90;;;;;;5072973;28;19959;-66
2023/02/21 11:49:45;;;;;;;;;;;12.40;99.90;;;;;;5073677;28;19912;-64
2023/02/21 11:52:13;;;;;;;;;;;12.40;99.90;;;;;;5072053;28;19919;-66
2023/02/21 11:54:39;;;;;;;;;;;12.40;99.90;;;;;;5069397;28;19916;-69
2023/02/21 11:57:12;;;;;;;;;;;12.30;99.90;;;;;;5070125;28;19927;-66
2023/02/21 11:59:37;;;;;;;;;;;12.20;99.90;;;;;;5076455;28;19912;-68
2023/02/21 12:02:18;;;;;;;;;;;12.20;99.90;;;;;;5079730;28;19908;-65
2023/02/21 12:04:44;;;;;;;;;;;12.30;99.90;;;;;;5075512;28;20547;-68
2023/02/21 12:07:09;;;;;;;;;;;12.30;99.90;;;;;;5087932;28;20011;-65
2023/02/21 12:09:55;;;;;;;;;;;12.20;99.90;;;;;;5084509;28;19974;-66
2023/02/21 12:12:30;;;;;;;;;;;12.20;99.90;;;;;;5084028;28;19912;-66
2023/02/21 12:15:14;;;;;;;;;;;12.10;99.90;;;;;;5081120;28;20006;-67
2023/02/21 12:17:40;;;;;;;;;;;12.10;99.90;;;;;;5061571;28;19944;-65
2023/02/21 12:20:05;;;;;;;;;;;12.20;99.90;;;;;;5079436;28;19947;-68
2023/02/21 12:22:40;;;;;;;;;;;12.20;99.90;;;;;;5076970;28;20351;-66
2023/02/21 12:25:12;;;;;;;;;;;12.30;99.90;;;;;;5083996;28;20416;-66
2023/02/21 12:27:40;;;;;;;;;;;12.30;99.90;;;;;;5084197;28;20362;-66
2023/02/21 12:30:26;;;;;;;;;;;12.30;99.90;;;;;;5084947;28;19917;-68
2023/02/21 12:33:05;;;;;;;;;;;12.40;99.90;;;;;;5083353;28;20382;-66
2023/02/21 12:35:37;;;;;;;;;;;12.40;99.90;;;;;;5074722;28;19917;-66
2023/02/21 12:38:17;;;;;;;;;;;12.40;99.90;;;;;;5069335;28;21066;-66
2023/02/21 12:41:16;;;;;;;;;;;12.50;99.90;;;;;;5066980;28;20393;-70
2023/02/21 12:43:47;;;;;;;;;;;12.60;99.90;;;;;;5038939;28;20336;-67
2023/02/21 12:46:32;;;;;;;;;;;12.50;99.90;;;;;;5073615;28;19909;-66
2023/02/21 12:49:20;;;;;;;;;;;12.50;99.90;;;;;;5075610;28;19912;-66
2023/02/21 12:51:50;;;;;;;;;;;12.50;99.90;;;;;;5041538;28;19916;-66
2023/02/21 12:54:18;;;;;;;;;;;12.60;99.90;;;;;;5076799;28;20413;-67
2023/02/21 12:56:51;;;;;;;;;;;12.60;99.90;;;;;;5075827;28;20012;-68
2023/02/21 12:59:22;;;;;;;;;;;12.50;99.90;;;;;;5078776;28;20289;-68
2023/02/21 13:02:09;;;;;;;;;;;12.50;99.90;;;;;;5079991;28;19969;-67
2023/02/21 13:04:40;;;;;;;;;;;12.50;99.90;;;;;;5074556;28;19917;-68
2023/02/21 13:07:17;;;;;;;;;;;12.50;99.90;;;;;;5062154;28;19995;-68
2023/02/21 13:09:48;;;;;;;;;;;12.50;99.90;;;;;;5074183;28;19912;-67
2023/02/21 13:12:14;;;;;;;;;;;12.50;99.90;;;;;;5074122;28;19996;-68
2023/02/21 13:14:55;;;;;;;;;;;12.50;99.90;;;;;;5071785;28;19972;-68
2023/02/21 13:17:21;;;;;;;;;;;12.50;99.90;;;;;;5071284;28;19912;-66
2023/02/21 13:19:54;;;;;;;;;;;12.60;99.90;;;;;;5067879;28;20279;-69
2023/02/21 13:22:23;;;;;;;;;;;12.60;99.90;;;;;;5068825;28;19939;-68
2023/02/21 13:24:58;;;;;;;;;;;12.60;99.90;;;;;;5066725;28;19935;-68
2023/02/21 13:27:42;;;;;;;;;;;12.80;99.90;;;;;;5072381;28;19909;-68
2023/02/21 13:30:13;;;;;;;;;;;12.80;99.90;;;;;;5064906;28;19928;-68
2023/02/21 13:32:39;;;;;;;;;;;12.80;99.90;;;;;;5068188;28;19908;-68
2023/02/21 13:35:09;;;;;;;;;;;12.70;99.90;;;;;;5062717;28;19928;-68
2023/02/21 13:37:42;;;;;;;;;;;12.80;99.90;;;;;;5069933;28;19924;-68
2023/02/21 13:40:23;;;;;;;;;;;12.70;99.90;;;;;;5073431;28;20296;-67
2023/02/21 13:43:00;;;;;;;;;;;12.60;99.90;;;;;;5073723;28;19909;-68
2023/02/21 13:45:26;;;;;;;;;;;12.80;99.90;;;;;;5064394;28;19912;-68
2023/02/21 13:47:52;;;;;;;;;;;12.90;99.90;;;;;;5068988;28;19996;-66
2023/02/21 13:50:33;;;;;;;;;;;13.00;99.90;;;;;;5064393;28;19912;-67
2023/02/21 13:53:07;;;;;;;;;;;12.80;99.90;;;;;;5059621;28;19962;-68
2023/02/21 13:55:36;;;;;;;;;;;12.70;99.90;;;;;;5073503;28;19923;-68
2023/02/21 13:58:03;;;;;;;;;;;12.70;99.90;;;;;;5083088;28;19919;-68
2023/02/21 14:00:29;;;;;;;;;;;12.60;99.90;;;;;;5080673;28;19912;-66
2023/02/21 14:02:59;;;;;;;;;;;12.50;99.90;;;;;;5071141;28;19952;-71
2023/02/21 14:05:26;;;;;;;;;;;12.60;99.90;;;;;;5070514;28;19916;-68
2023/02/21 14:08:17;;;;;;;;;;;12.60;99.90;;;;;;5074435;28;20326;-68
2023/02/21 14:10:45;;;;;;;;;;;12.60;99.90;;;;;;5029364;28;19952;-69
2023/02/21 14:13:34;;;;;;;;;;;12.60;99.90;;;;;;5067560;28;19912;-68
2023/02/21 14:16:12;;;;;;;;;;;12.60;99.90;;;;;;5076377;28;20534;-68
2023/02/21 14:18:37;;;;;;;;;;;12.50;99.90;;;;;;5074961;28;19912;-68
2023/02/21 14:21:08;;;;;;;;;;;12.40;99.90;;;;;;5070091;28;20003;-69
2023/02/21 14:23:38;;;;;;;;;;;12.40;99.90;;;;;;5071088;28;19917;-69
2023/02/21 14:26:04;;;;;;;;;;;12.50;99.90;;;;;;5072165;28;19920;-68
2023/02/21 14:28:48;;;;;;;;;;;12.50;99.90;;;;;;5071244;28;19920;-69
2023/02/21 14:31:13;;;;;;;;;;;12.50;99.90;;;;;;5074285;28;19913;-69
2023/02/21 14:33:39;;;;;;;;;;;12.50;99.90;;;;;;5075060;28;19920;-69
2023/02/21 14:36:07;;;;;;;;;;;12.40;99.90;;;;;;5078378;28;20015;-68
2023/02/21 14:38:36;;;;;;;;;;;12.40;99.90;;;;;;5077595;28;19912;-68
2023/02/21 14:41:04;;;;;;;;;;;12.40;99.90;;;;;;5074051;28;20390;-68
2023/02/21 14:43:31;;;;;;;;;;;12.60;99.90;;;;;;5064574;28;20381;-69
2023/02/21 14:45:57;;;;;;;;;;;12.50;99.90;;;;;;5074338;28;19920;-68
2023/02/21 14:48:22;;;;;;;;;;;12.50;99.90;;;;;;5065647;28;19913;-68
2023/02/21 14:51:10;;;;;;;;;;;12.50;99.90;;;;;;5071707;28;20385;-68
2023/02/21 14:53:39;;;;;;;;;;;12.60;99.90;;;;;;5064461;28;19928;-69
2023/02/21 14:56:23;;;;;;;;;;;12.50;99.90;;;;;;5068535;28;19920;-67
2023/02/21 14:59:15;;;;;;;;;;;12.40;99.90;;;;;;5068250;28;19983;-67
2023/02/21 15:01:40;;;;;;;;;;;12.50;99.90;;;;;;5061172;28;19909;-66
2023/02/21 15:04:21;;;;;;;;;;;12.50;99.90;;;;;;5070372;28;20011;-67
2023/02/21 15:07:05;;;;;;;;;;;12.50;99.90;;;;;;5071426;28;19908;-67
2023/02/21 15:09:31;;;;;;;;;;;12.50;99.90;;;;;;5069192;28;20003;-68
2023/02/21 15:11:57;;;;;;;;;;;12.40;99.90;;;;;;5067999;28;19956;-68
2023/02/21 15:14:24;;;;;;;;;;;12.40;99.90;;;;;;5066824;28;19995;-68
2023/02/21 15:16:52;;;;;;;;;;;12.50;99.90;;;;;;5066239;28;19923;-68
2023/02/21 15:19:29;;;;;;;;;;;12.40;99.90;;;;;;5064704;28;19917;-69
2023/02/21 15:22:10;;;;;;;;;;;12.40;99.90;;;;;;5069955;28;20389;-69
2023/02/21 15:24:36;;;;;;;;;;;12.40;99.90;;;;;;5071630;28;19947;-69
2023/02/21 15:27:09;;;;;;;;;;;12.40;99.90;;;;;;5072955;28;19916;-69
2023/02/21 15:29:34;;;;;;;;;;;12.40;99.90;;;;;;5068449;28;19912;-67
2023/02/21 15:32:00;;;;;;;;;;;12.30;99.90;;;;;;5069036;28;19920;-69
2023/02/21 15:34:28;;;;;;;;;;;12.20;99.90;;;;;;5069145;28;19970;-68
2023/02/21 15:36:57;;;;;;;;;;;12.20;99.90;;;;;;5075689;28;20664;-68
2023/02/21 15:39:28;;;;;;;;;;;12.20;99.90;;;;;;5080033;28;19912;-69
2023/02/21 15:41:58;;;;;;;;;;;12.20;99.90;;;;;;5073617;28;20363;-69
2023/02/21 15:44:28;;;;;;;;;;;12.20;99.90;;;;;;5076193;28;20098;-69
2023/02/21 15:47:11;;;;;;;;;;;12.30;99.90;;;;;;5070292;28;19913;-68
2023/02/21 15:49:39;;;;;;;;;;;12.20;99.90;;;;;;5071989;28;19913;-67
2023/02/21 15:52:05;;;;;;;;;;;12.30;99.90;;;;;;5076057;28;19983;-68
2023/02/21 15:54:32;;;;;;;;;;;12.30;99.90;;;;;;5055942;28;20290;-67
2023/02/21 15:57:01;;;;;;;;;;;12.20;99.90;;;;;;5074797;28;19912;-67
2023/02/21 15:59:27;;;;;;;;;;;12.20;99.90;;;;;;5078590;28;20431;-67
2023/02/21 16:02:14;;;;;;;;;;;12.10;99.90;;;;;;5074703;28;19928;-68
2023/02/21 16:04:40;;;;;;;;;;;12.10;99.90;;;;;;5075577;28;19913;-68
2023/02/21 16:07:12;;;;;;;;;;;12.10;99.90;;;;;;5073585;28;19920;-68
2023/02/21 16:09:39;;;;;;;;;;;12.00;99.90;;;;;;5070273;28;20030;-68
2023/02/21 16:12:11;;;;;;;;;;;12.00;99.90;;;;;;5072556;28;20396;-69
2023/02/21 16:14:38;;;;;;;;;;;12.10;99.90;;;;;;5061450;28;19968;-69
2023/02/21 16:17:12;;;;;;;;;;;12.10;99.90;;;;;;5066156;28;20378;-75
2023/02/21 16:19:42;;;;;;;;;;;12.10;99.90;;;;;;5052452;28;19920;-68
2023/02/21 16:22:11;;;;;;;;;;;12.30;99.90;;;;;;5066182;28;19924;-68
2023/02/21 16:24:38;;;;;;;;;;;12.30;99.90;;;;;;5060144;28;19919;-68
2023/02/21 16:27:05;;;;;;;;;;;12.20;99.90;;;;;;5065729;28;19916;-68
2023/02/21 16:29:30;;;;;;;;;;;12.20;99.90;;;;;;5068857;28;20005;-68
2023/02/21 16:31:56;;;;;;;;;;;12.20;99.90;;;;;;5076821;28;19912;-68
2023/02/21 16:34:23;;;;;;;;;;;12.20;99.90;;;;;;5068336;28;20295;-68
2023/02/21 16:36:53;;;;;;;;;;;12.30;99.90;;;;;;5069087;28;19912;-67
2023/02/21 16:39:19;;;;;;;;;;;12.30;99.90;;;;;;5077849;28;19918;-68
2023/02/21 16:41:45;;;;;;;;;;;12.30;99.90;;;;;;5051882;28;19936;-67
2023/02/21 16:44:11;;;;;;;;;;;12.20;99.90;;;;;;5058286;28;19946;-69
2023/02/21 16:46:36;;;;;;;;;;;12.10;99.90;;;;;;5069560;28;19917;-69